Airfield :
LOGIN :

Register | Disclaimer

   EN    FR    IT 

 










Legend :    VFR   Marginal VFR   IFR   Intensive IFR   Very Intensive IFR
Visi :
Ceiling :
>= 8 km
>= 3000ft
5 to 8 km
1000 to 3000 ft
1500m to 5 km
500 to 1000 ft
800 to 1500m
200 to 500 ft
< 800m
< 200 ft
Symbols :   Thunderstorms  Fog  Heavy snow  Heavy precipitations  Wind > 20 kt
SIGMETs :     Misc.  Thunderstorms  Icing  Turbulence  Mountain Waves  Volcanic Ashes






- Airport Elevation : 443 ft
- IATA code : SQQ


EYSA - Siauliai

CURRENT METAR :
  • 181750Z 25008KT CAVOK 22/11 Q1015 NOSIG

EXPIRED METARs :
  • 181720Z 25008KT 220V280 CAVOK 22/10 Q1015 NOSIG
  • 181650Z 25009KT 220V280 CAVOK 23/11 Q1015 NOSIG
  • 181620Z 26009KT 220V280 CAVOK 23/11 Q1015 NOSIG
  • 181550Z 24010KT 210V270 CAVOK 24/11 Q1015 NOSIG
  • 181520Z 27011KT CAVOK 24/11 Q1015 NOSIG
  • 181450Z 26011KT 210V290 CAVOK 25/12 Q1015 NOSIG
  • 181420Z 23011KT 9999 SCT043 24/11 Q1014 NOSIG
  • 181350Z 26011KT 230V290 9999 VCSH FEW034CB SCT043 24/14 Q1014 NOSIG

TAF TAF EYSA
Valid from the 18 at 18:00 until the 19 at 03:00 UTC


181700Z 1818/1903 VRB05KT 9000 NSC



MET'MAP, your aeronautical weather chart ! - Copyright ORBIFLY December 2007 - Disclaimer

ORBIFLY MET'MAP TEAM :

Programming & Development : Alexandra Zaïnal
Original concept : Baudouin d'Aumeries
Technical & hardware support : Manuel Goepfert
Assistance : Marc-Olivier Méhu




SOURCES & CREDITS :

   NOAA